METAR Italia - 23 Oct 2017 - 0948 UTC - RocketRoute WX - rrwx.com
LIEA 230920Z 32007KT 290V360 9999 SCT045 18/07 Q1018 LIBD 230920Z 29006KT 250V330 9999 FEW025TCU SCT030 17/10 Q1006 LIME 230920Z 07005KT 040V140 CAVOK 15/04 Q1012 NOSIG LIPE 230920Z 27016KT CAVOK 15/01 Q1013 LIRN 230920Z 35007KT 320V120 9999 FEW030 17/11 Q1008 NOSIG LICC 230920Z 26016KT 9999 SCT060 22/09 Q1010 LIRA 230920Z 35016KT 9999 FEW040 15/05 Q1011 LIBC   LIEE 230920Z 33024KT 9999 SCT020 19/07 Q1017 LIPY 230850Z 22007KT 9999 FEW010 BKN030 13/10 Q1012 LIRF 230920Z 35017KT CAVOK 16/05 Q1012 NOSIG LIMJ 230920Z 07005KT 010V100 CAVOK 20/M04 Q1014 LICD 230850Z 32018KT 9999 FEW040 21/13 Q1017 LIML 230920Z 27006KT 240V350 CAVOK 18/M00 Q1013 NOSIG LIMC 230920Z 34012KT CAVOK 18/00 Q1015 NOSIG LIEO 230920Z 26012KT 230V290 CAVOK 20/07 Q1016 LICJ 230920Z 30023KT 9999 SCT020 20/11 Q1014 LIBP 230850Z 26007KT 220V280 4500 -RA BKN015 11/09 Q1012 LIRP 230915Z 12006KT CAVOK 13/08 Q1013 NOSIG LICR 230850Z 33007KT 290V360 9999 SCT050 20/14 Q1011 LIMF 230920Z 11006KT 070V150 CAVOK 17/M04 Q1015 LIRU 230850Z 35015KT CAVOK 15/06 Q1012 LIPZ 230920Z VRB03KT CAVOK 14/08 Q1011 NOSIG

RocketRoute WX - rrwx.com weather for pilots